Gouverneur, NY (13642)

6:27 PM EST on February 14, 2016 (GMT -0500)
Village of Gouverneur (Barnes St.) | | Change Station
CLOSE
Current Station
Personal Weather Station
Location: Gouverneur, NY
Elevation: 433 ft
Nearby Weather Stations

Elev 433 ft 44.34 °N, 75.47 °W | Updated 13 minutes ago

Partly Cloudy
Partly Cloudy
-8.7 °F
Feels Like -9 °F
N
0.0
Wind Variable Wind from NNW

Today
High -- | Low -- °F
--% Chance of Precip.
Yesterday
High -- | Low -- °F
Precip. -- in
Pressure 30.55 in
Visibility 10.0 miles
Clouds Clear
Windchill -9 °F
Dew Point -14 °F
Humidity 78%
Rainfall 0.00 in
Snow Depth Not available.
7:03 AM 5:28 PM
Waxing Crescent, 46% visible
METAR KGTB 142258Z AUTO 00000KT 10SM CLR M21/M27 A3047 RMK AO2 SLP344 T12131266
Pressure 30.55 in
Visibility 10.0 miles
Clouds Clear
Windchill -9 °F
Dew Point -14 °F
Humidity 78%
Rainfall 0.00 in
Snow Depth Not available.
7:03 AM 5:28 PM
Waxing Crescent, 46% visible
METAR KGTB 142258Z AUTO 00000KT 10SM CLR M21/M27 A3047 RMK AO2 SLP344 T12131266

10-Day Weather Forecast

Almanac

Astronomy

Feb. 14, 2016 Rise Set
Actual Time
Civil Twilight
Nautical Twilight
Astronomical Twilight
Moon
Length of Visible Light
Length of Day
Tomorrow will be .
, % of the Moon is Illuminated

Today's Extremes

State Highs State Lows

Community

WunderPhotos

Upload Photos

1,892,915 photos uploaded!

WunderBlog® & News

Nearby

Air Quality

  Air Quality AQ Index Pollutant
Not available.

Snow Depth

Station Depth Elevation

Earthquake Activity

City Distance Mag. Time & Date
Minimum magnitude displayed is 2.5.

Coastal Water Temperatures

Place Temperature

Stations

Nearby Weather Stations

Station Location Temp. Windchill Dew Point Humidity Wind Precip. Elev Updated Type
                   

Watches & Warnings

There are currently no watches in effect.